createdAt,value
2023-11-14T00:01:14.317Z,5.27
2023-11-14T00:03:44.634Z,4.57
2023-11-14T00:06:14.833Z,4.40
2023-11-14T00:08:44.987Z,4.60
2023-11-14T00:11:15.179Z,4.90
2023-11-14T00:13:48.128Z,4.03
2023-11-14T00:16:18.350Z,4.27
2023-11-14T00:18:48.578Z,5.00
2023-11-14T00:21:18.728Z,4.33
2023-11-14T00:23:48.884Z,4.37
2023-11-14T00:26:18.942Z,5.03
2023-11-14T00:28:56.718Z,4.80
2023-11-14T00:31:27.000Z,5.03
2023-11-14T00:33:57.098Z,4.60
2023-11-14T00:36:27.225Z,4.70
2023-11-14T00:39:01.187Z,4.40
2023-11-14T00:41:31.521Z,4.40
2023-11-14T00:44:04.234Z,4.30
2023-11-14T00:46:34.414Z,4.43
2023-11-14T00:49:04.659Z,4.60
2023-11-14T00:51:34.806Z,4.60
2023-11-14T00:54:05.435Z,4.47
2023-11-14T00:56:35.641Z,4.17
2023-11-14T00:59:09.781Z,4.90
2023-11-14T01:01:40.652Z,4.07
2023-11-14T01:04:11.672Z,4.40
2023-11-14T01:06:41.832Z,4.57
2023-11-14T01:09:11.991Z,4.83
2023-11-14T01:11:42.244Z,4.40
2023-11-14T01:14:15.054Z,4.07
2023-11-14T01:16:45.305Z,4.13
2023-11-14T01:19:15.608Z,5.07
2023-11-14T01:21:46.541Z,5.30
2023-11-14T01:24:18.111Z,4.73
2023-11-14T01:26:48.224Z,4.40
2023-11-14T01:29:21.002Z,5.40
2023-11-14T01:31:51.461Z,4.57
2023-11-14T01:34:21.679Z,4.23
2023-11-14T01:36:52.658Z,5.53
2023-11-14T01:39:22.785Z,5.20
2023-11-14T01:41:52.835Z,5.00
2023-11-14T01:44:26.111Z,4.87
2023-11-14T01:46:58.498Z,5.40
2023-11-14T01:49:28.999Z,4.70
2023-11-14T01:51:59.849Z,6.33
2023-11-14T01:54:30.186Z,6.60
2023-11-14T01:57:00.259Z,4.30
2023-11-14T01:59:33.350Z,5.30
2023-11-14T02:02:05.589Z,4.93
2023-11-14T02:04:37.290Z,5.40
2023-11-14T02:07:07.640Z,5.00
2023-11-14T02:09:38.088Z,5.00
2023-11-14T02:12:09.146Z,5.07
2023-11-14T02:14:42.113Z,6.30
2023-11-14T02:17:18.722Z,5.37
2023-11-14T02:19:49.022Z,5.10
2023-11-14T02:22:20.096Z,4.60
2023-11-14T02:24:56.780Z,6.17
2023-11-14T02:27:27.022Z,5.43
2023-11-14T02:29:58.002Z,6.30
2023-11-14T02:32:28.137Z,5.23
2023-11-14T02:34:58.950Z,5.70
2023-11-14T02:37:29.899Z,5.47
2023-11-14T02:40:04.678Z,6.50
2023-11-14T02:42:34.829Z,6.03
2023-11-14T02:45:08.083Z,4.87
2023-11-14T02:47:38.379Z,4.90
2023-11-14T02:50:17.222Z,5.23
2023-11-14T02:52:47.362Z,5.60
2023-11-14T02:55:21.507Z,6.33
2023-11-14T02:57:52.595Z,6.10
2023-11-14T03:00:24.872Z,6.40
2023-11-14T03:02:55.131Z,5.00
2023-11-14T03:05:25.512Z,4.93
2023-11-14T03:07:55.573Z,5.67
2023-11-14T03:10:28.612Z,5.00
2023-11-14T03:12:58.765Z,5.47
2023-11-14T03:15:29.787Z,5.93
2023-11-14T03:18:02.461Z,5.40
2023-11-14T03:20:35.200Z,5.53
2023-11-14T03:23:07.138Z,4.97
2023-11-14T03:25:40.057Z,5.40
2023-11-14T03:28:10.221Z,4.90
2023-11-14T03:30:40.432Z,5.90
2023-11-14T03:33:10.633Z,5.20
2023-11-14T03:35:40.806Z,5.03
2023-11-14T03:38:10.988Z,5.03
2023-11-14T03:40:44.982Z,4.53
2023-11-14T03:43:15.172Z,4.53
2023-11-14T03:45:45.355Z,5.20
2023-11-14T03:48:16.163Z,4.47
2023-11-14T03:50:46.273Z,4.53
2023-11-14T03:53:18.309Z,4.27
2023-11-14T03:55:51.857Z,3.73
2023-11-14T03:58:22.069Z,4.90
2023-11-14T04:00:53.097Z,4.47
2023-11-14T04:03:23.354Z,4.73
2023-11-14T04:05:53.617Z,4.27
2023-11-14T04:08:23.770Z,4.20
2023-11-14T04:10:56.602Z,4.50
2023-11-14T04:13:26.775Z,4.60
2023-11-14T04:15:57.083Z,3.93
2023-11-14T04:18:27.397Z,3.83
2023-11-14T04:20:59.823Z,4.10
2023-11-14T04:23:30.411Z,3.83
2023-11-14T04:26:03.171Z,4.30
2023-11-14T04:28:33.395Z,4.63
2023-11-14T04:31:03.688Z,4.07
2023-11-14T04:33:33.828Z,4.30
2023-11-14T04:36:04.614Z,3.97
2023-11-14T04:38:34.685Z,3.47
2023-11-14T04:41:07.651Z,3.63
2023-11-14T04:43:37.830Z,3.80
2023-11-14T04:46:09.131Z,4.60
2023-11-14T04:48:39.226Z,4.43
2023-11-14T04:51:09.493Z,4.20
2023-11-14T04:53:39.601Z,7.67
2023-11-14T04:56:12.511Z,3.83
2023-11-14T04:58:42.605Z,3.77
2023-11-14T05:01:12.758Z,3.80
2023-11-14T05:03:42.886Z,3.70
2023-11-14T05:06:12.926Z,3.13
2023-11-14T05:08:43.026Z,3.40
2023-11-14T05:11:15.811Z,3.77
2023-11-14T05:13:45.942Z,4.00
2023-11-14T05:16:22.463Z,3.57
2023-11-14T05:18:54.651Z,3.70
2023-11-14T05:21:24.711Z,3.53
2023-11-14T05:23:54.776Z,9.90
2023-11-14T05:26:27.449Z,3.53
2023-11-14T05:28:57.516Z,2.97
2023-11-14T05:31:27.652Z,3.63
2023-11-14T05:33:57.785Z,3.33
2023-11-14T05:36:27.805Z,3.00
2023-11-14T05:38:57.916Z,3.90
2023-11-14T05:41:30.632Z,3.80
2023-11-14T05:44:02.133Z,3.17
2023-11-14T05:46:32.934Z,3.47
2023-11-14T05:49:03.162Z,3.53
2023-11-14T05:51:33.497Z,3.70
2023-11-14T05:54:03.634Z,3.83
2023-11-14T05:56:36.428Z,3.43
2023-11-14T05:59:08.820Z,3.80
2023-11-14T06:01:39.018Z,4.13
2023-11-14T06:04:10.778Z,3.20
2023-11-14T06:06:40.996Z,3.63
2023-11-14T06:09:11.848Z,4.07
2023-11-14T06:11:45.028Z,4.07
2023-11-14T06:14:15.117Z,4.37
2023-11-14T06:16:46.525Z,3.50
2023-11-14T06:19:16.650Z,4.03
2023-11-14T06:21:49.093Z,3.90
2023-11-14T06:24:19.468Z,3.43
2023-11-14T06:26:52.199Z,3.70
2023-11-14T06:29:22.349Z,4.20
2023-11-14T06:31:52.472Z,3.33
2023-11-14T06:34:23.234Z,4.10
2023-11-14T06:36:53.359Z,3.77
2023-11-14T06:39:23.677Z,3.60
2023-11-14T06:41:56.506Z,4.40
2023-11-14T06:44:26.697Z,3.80
2023-11-14T06:46:56.817Z,4.63
2023-11-14T06:49:26.994Z,3.70
2023-11-14T06:51:57.162Z,3.23
2023-11-14T06:54:27.367Z,3.97
2023-11-14T06:57:00.742Z,4.67
2023-11-14T06:59:32.961Z,3.43
2023-11-14T07:02:07.307Z,3.13
2023-11-14T07:04:38.443Z,3.90
2023-11-14T07:07:09.021Z,3.70
2023-11-14T07:09:39.198Z,4.23
2023-11-14T07:12:12.832Z,4.07
2023-11-14T07:14:43.020Z,3.40
2023-11-14T07:17:13.521Z,3.50
2023-11-14T07:19:43.845Z,3.83
2023-11-14T07:22:14.122Z,3.93
2023-11-14T07:24:47.246Z,4.50
2023-11-14T07:27:19.947Z,3.87
2023-11-14T07:29:52.562Z,4.07
2023-11-14T07:32:22.675Z,3.23
2023-11-14T07:34:54.395Z,3.70
2023-11-14T07:37:24.523Z,3.97
2023-11-14T07:39:57.462Z,3.67
2023-11-14T07:42:30.453Z,3.30
2023-11-14T07:45:00.659Z,3.53
2023-11-14T07:47:31.033Z,3.73
2023-11-14T07:50:01.688Z,3.23
2023-11-14T07:52:31.905Z,4.00
2023-11-14T07:55:04.346Z,3.20
2023-11-14T07:57:37.079Z,3.77
2023-11-14T08:00:10.492Z,2.87
2023-11-14T08:02:44.610Z,3.17
2023-11-14T08:05:14.999Z,3.73
2023-11-14T08:07:45.118Z,3.37
2023-11-14T08:10:16.137Z,3.20
2023-11-14T08:12:48.902Z,3.37
2023-11-14T08:15:19.017Z,3.70
2023-11-14T08:17:49.136Z,3.97
2023-11-14T08:20:19.584Z,3.50
2023-11-14T08:22:49.717Z,2.83
2023-11-14T08:25:21.529Z,3.37
2023-11-14T08:27:54.222Z,3.43
2023-11-14T08:30:28.651Z,3.20
2023-11-14T08:32:59.096Z,3.43
2023-11-14T08:35:29.191Z,4.27
2023-11-14T08:38:06.979Z,3.27
2023-11-14T08:40:43.955Z,27.73
2023-11-14T08:43:16.731Z,35.40
2023-11-14T08:45:46.791Z,6.50
2023-11-14T08:48:16.893Z,14.97
2023-11-14T08:50:46.960Z,17.87
2023-11-14T08:53:17.837Z,17.30
2023-11-14T08:55:47.982Z,45.17
2023-11-14T08:58:20.789Z,45.10
2023-11-14T09:00:51.124Z,13.80
2023-11-14T09:03:21.307Z,29.60
2023-11-14T09:05:51.618Z,15.43
2023-11-14T09:08:23.865Z,11.53
2023-11-14T09:10:54.452Z,13.67
2023-11-14T09:13:27.164Z,39.90
2023-11-14T09:15:57.337Z,43.17
2023-11-14T09:18:27.658Z,29.50
2023-11-14T09:20:59.002Z,29.17
2023-11-14T09:23:29.233Z,11.07
2023-11-14T09:26:00.803Z,21.10
2023-11-14T09:28:34.439Z,25.47
2023-11-14T09:31:06.762Z,16.63
2023-11-14T09:33:40.477Z,47.13
2023-11-14T09:36:11.255Z,23.23
2023-11-14T09:38:41.885Z,57.07
2023-11-14T09:41:13.434Z,67.00
2023-11-14T09:43:47.516Z,77.70
2023-11-14T09:46:17.845Z,36.00
2023-11-14T09:48:48.090Z,73.37
2023-11-14T09:51:18.922Z,34.80
2023-11-14T09:53:51.501Z,9.60
2023-11-14T09:56:22.665Z,17.83
2023-11-14T09:59:01.991Z,62.70
2023-11-14T10:01:32.929Z,49.13
2023-11-14T10:04:07.284Z,8.63
2023-11-14T10:06:44.159Z,36.67
2023-11-14T10:09:17.982Z,8.80
2023-11-14T10:12:05.442Z,12.00
2023-11-14T10:14:51.434Z,18.57
2023-11-14T10:17:22.108Z,17.07
2023-11-14T10:20:04.584Z,79.80
2023-11-14T10:22:35.453Z,26.47
2023-11-14T10:25:05.934Z,25.53
2023-11-14T10:27:38.345Z,17.37
2023-11-14T10:30:12.951Z,28.27
2023-11-14T10:32:43.133Z,27.10
2023-11-14T10:35:19.952Z,27.23
2023-11-14T10:37:50.800Z,15.27
2023-11-14T10:40:20.926Z,101.90
2023-11-14T10:42:57.022Z,17.60
2023-11-14T10:45:29.900Z,19.50
2023-11-14T10:48:00.546Z,19.00
2023-11-14T10:50:33.942Z,12.37
2023-11-14T10:53:05.413Z,7.67
2023-11-14T10:55:36.917Z,19.63
2023-11-14T10:58:08.326Z,8.53
2023-11-14T11:00:41.814Z,27.73
2023-11-14T11:03:17.891Z,10.97
2023-11-14T11:05:50.283Z,15.27
2023-11-14T11:08:21.855Z,9.70
2023-11-14T11:10:53.984Z,23.77
2023-11-14T11:13:25.899Z,15.37
2023-11-14T11:15:58.855Z,41.60
2023-11-14T11:18:39.974Z,61.93
2023-11-14T11:21:12.043Z,36.33
2023-11-14T11:24:10.986Z,31.07
2023-11-14T11:27:11.258Z,12.73
2023-11-14T11:29:58.196Z,19.33
2023-11-14T11:32:36.981Z,33.97
2023-11-14T11:35:24.530Z,21.10
2023-11-14T11:37:55.636Z,25.53
2023-11-14T11:40:29.380Z,41.23
2023-11-14T11:43:00.892Z,31.43
2023-11-14T11:45:35.316Z,11.03
2023-11-14T11:48:16.326Z,15.20
2023-11-14T11:50:47.479Z,18.13
2023-11-14T11:53:17.638Z,10.63
2023-11-14T11:55:49.223Z,6.20
2023-11-14T11:58:19.849Z,3.67
2023-11-14T12:00:50.054Z,2.90
2023-11-14T12:03:23.542Z,4.47
2023-11-14T12:06:01.236Z,3.77
2023-11-14T12:08:31.611Z,2.70
2023-11-14T12:11:01.762Z,3.63
2023-11-14T12:13:32.065Z,3.40
2023-11-14T12:16:02.903Z,3.67
2023-11-14T12:18:37.452Z,3.43
2023-11-14T12:21:09.842Z,3.30
2023-11-14T12:23:40.338Z,3.77
2023-11-14T12:26:10.512Z,3.53
2023-11-14T12:28:41.622Z,3.93
2023-11-14T12:31:14.967Z,4.13
2023-11-14T12:33:53.979Z,3.80
2023-11-14T12:36:28.114Z,7.37
2023-11-14T12:38:58.994Z,4.33
2023-11-14T12:41:31.600Z,3.93
2023-11-14T12:44:08.366Z,3.87
2023-11-14T12:46:41.076Z,4.53
2023-11-14T12:49:19.153Z,12.87
2023-11-14T12:51:51.855Z,3.60
2023-11-14T12:54:24.778Z,3.63
2023-11-14T12:56:56.832Z,3.13
2023-11-14T12:59:27.702Z,3.77
2023-11-14T13:01:58.498Z,3.10
2023-11-14T13:04:31.496Z,3.83
2023-11-14T13:07:01.787Z,3.47
2023-11-14T13:09:33.133Z,3.37
2023-11-14T13:12:06.691Z,4.03
2023-11-14T13:14:39.076Z,3.00
2023-11-14T13:17:10.439Z,3.47
2023-11-14T13:19:44.469Z,3.67
2023-11-14T13:22:22.279Z,4.17
2023-11-14T13:24:55.847Z,3.30
2023-11-14T13:27:26.247Z,4.33
2023-11-14T13:29:57.011Z,5.03
2023-11-14T13:32:27.913Z,4.63
2023-11-14T13:35:06.961Z,4.70
2023-11-14T13:37:38.021Z,4.23
2023-11-14T13:40:10.083Z,3.70
2023-11-14T13:42:43.373Z,4.90
2023-11-14T13:45:13.796Z,4.20
2023-11-14T13:47:44.282Z,4.00
2023-11-14T13:50:18.107Z,4.33
2023-11-14T13:52:48.569Z,4.57
2023-11-14T13:55:19.378Z,4.93
2023-11-14T13:57:49.819Z,4.73
2023-11-14T14:00:24.193Z,4.73
2023-11-14T14:02:54.464Z,4.37
2023-11-14T14:05:27.458Z,5.17
2023-11-14T14:07:57.942Z,4.33
2023-11-14T14:10:28.372Z,4.87
2023-11-14T14:12:59.576Z,4.57
2023-11-14T14:15:30.030Z,4.33
2023-11-14T14:18:00.664Z,4.00
2023-11-14T14:20:38.208Z,4.53
2023-11-14T14:23:09.586Z,4.33
2023-11-14T14:25:39.798Z,3.70
2023-11-14T14:28:10.378Z,4.50
2023-11-14T14:30:42.607Z,4.60
2023-11-14T14:33:17.472Z,4.07
2023-11-14T14:35:53.652Z,3.27
2023-11-14T14:38:28.673Z,3.30
2023-11-14T14:41:01.602Z,4.40
2023-11-14T14:43:32.524Z,4.00
2023-11-14T14:46:02.610Z,3.20
2023-11-14T14:48:33.796Z,4.13
2023-11-14T14:51:07.035Z,3.47
2023-11-14T14:53:37.412Z,3.20
2023-11-14T14:56:08.448Z,3.30
2023-11-14T14:58:38.799Z,4.87
2023-11-14T15:01:10.992Z,3.87
2023-11-14T15:03:41.247Z,4.00
2023-11-14T15:06:14.188Z,3.73
2023-11-14T15:08:44.943Z,4.13
2023-11-14T15:11:17.373Z,3.23
2023-11-14T15:13:48.724Z,4.27
2023-11-14T15:16:19.355Z,3.87
2023-11-14T15:18:49.798Z,4.07
2023-11-14T15:21:22.703Z,4.20
2023-11-14T15:23:53.500Z,3.90
2023-11-14T15:26:28.005Z,3.60
2023-11-14T15:28:58.551Z,4.33
2023-11-14T15:31:30.900Z,4.60
2023-11-14T15:34:04.401Z,3.60
2023-11-14T15:36:39.676Z,5.03
2023-11-14T15:39:10.426Z,4.30
2023-11-14T15:41:43.162Z,4.87
2023-11-14T15:44:15.960Z,4.40
2023-11-14T15:46:46.894Z,3.40
2023-11-14T15:49:20.718Z,3.87
2023-11-14T15:51:58.058Z,3.70
2023-11-14T15:54:29.237Z,25.50
2023-11-14T15:57:00.221Z,4.53
2023-11-14T15:59:30.713Z,4.30
2023-11-14T16:02:00.975Z,4.43
2023-11-14T16:04:49.944Z,3.60
2023-11-14T16:07:22.694Z,4.43
2023-11-14T16:09:53.199Z,3.57
2023-11-14T16:12:25.496Z,4.47
2023-11-14T16:15:14.412Z,4.10
2023-11-14T16:17:44.727Z,4.23
2023-11-14T16:20:33.986Z,4.27
2023-11-14T16:23:25.321Z,4.00
2023-11-14T16:25:55.563Z,4.20
2023-11-14T16:28:44.134Z,4.53
2023-11-14T16:31:14.429Z,3.73
2023-11-14T16:33:44.630Z,4.07
2023-11-14T16:36:33.255Z,4.93
2023-11-14T16:39:06.747Z,4.13
2023-11-14T16:41:39.661Z,4.23
2023-11-14T16:44:28.846Z,4.70
2023-11-14T16:46:59.053Z,4.30
2023-11-14T16:49:48.663Z,4.97
2023-11-14T16:52:37.134Z,4.27
2023-11-14T16:55:11.293Z,4.27
2023-11-14T16:57:42.882Z,4.40
2023-11-14T17:00:17.300Z,5.87
2023-11-14T17:02:52.224Z,5.13
2023-11-14T17:05:22.494Z,4.70
2023-11-14T17:07:55.142Z,4.57
2023-11-14T17:10:46.570Z,4.00
2023-11-14T17:13:17.293Z,5.17
2023-11-14T17:15:47.582Z,5.43
2023-11-14T17:18:17.892Z,6.23
2023-11-14T17:20:48.411Z,4.23
2023-11-14T17:23:19.474Z,4.13
2023-11-14T17:26:12.209Z,4.13
2023-11-14T17:28:46.400Z,4.73
2023-11-14T17:31:16.587Z,4.33
2023-11-14T17:33:46.780Z,4.40
2023-11-14T17:36:17.090Z,4.80
2023-11-14T17:38:47.231Z,4.30
2023-11-14T17:41:39.062Z,4.23
2023-11-14T17:44:10.800Z,4.13
2023-11-14T17:46:41.364Z,4.83
2023-11-14T17:49:14.198Z,4.43
2023-11-14T17:51:45.828Z,5.93
2023-11-14T17:54:16.116Z,4.50
2023-11-14T17:56:52.045Z,4.63
2023-11-14T17:59:22.471Z,4.40
2023-11-14T18:02:11.043Z,4.50
2023-11-14T18:04:59.860Z,4.40
2023-11-14T18:07:30.072Z,4.50
2023-11-14T18:10:00.339Z,4.70
2023-11-14T18:12:33.148Z,4.70
2023-11-14T18:15:06.076Z,4.13
2023-11-14T18:17:36.402Z,4.20
2023-11-14T18:20:08.031Z,4.90
2023-11-14T18:22:38.246Z,4.20
2023-11-14T18:25:09.825Z,4.27
2023-11-14T18:27:42.779Z,3.53
2023-11-14T18:30:13.744Z,4.23
2023-11-14T18:32:44.064Z,3.90
2023-11-14T18:35:14.803Z,5.60
2023-11-14T18:37:45.424Z,5.00
2023-11-14T18:40:16.261Z,4.10
2023-11-14T18:42:49.277Z,4.10
2023-11-14T18:45:41.294Z,17.00
2023-11-14T18:48:12.109Z,4.30
2023-11-14T18:50:46.623Z,3.80
2023-11-14T18:53:18.375Z,4.33
2023-11-14T18:55:49.568Z,4.30
2023-11-14T18:58:24.124Z,4.53
2023-11-14T19:01:01.050Z,4.50
2023-11-14T19:03:33.030Z,4.23
2023-11-14T19:06:06.305Z,4.40
2023-11-14T19:08:37.536Z,4.67
2023-11-14T19:11:11.287Z,4.20
2023-11-14T19:13:48.702Z,4.17
2023-11-14T19:16:21.446Z,8.20
2023-11-14T19:18:51.802Z,4.53
2023-11-14T19:21:45.226Z,3.47
2023-11-14T19:24:20.040Z,4.07
2023-11-14T19:26:50.472Z,3.90
2023-11-14T19:29:23.210Z,4.00
2023-11-14T19:32:12.128Z,4.40
2023-11-14T19:34:44.662Z,3.90
2023-11-14T19:37:33.323Z,4.50
2023-11-14T19:40:06.788Z,3.57
2023-11-14T19:42:36.919Z,4.17
2023-11-14T19:45:10.612Z,7.30
2023-11-14T19:47:43.138Z,4.50
2023-11-14T19:50:15.654Z,4.13
2023-11-14T19:53:05.902Z,3.90
2023-11-14T19:55:35.954Z,3.90
2023-11-14T19:58:06.152Z,4.23
2023-11-14T20:00:39.040Z,4.90
2023-11-14T20:03:09.609Z,3.70
2023-11-14T20:05:42.998Z,4.10
2023-11-14T20:08:13.400Z,3.87
2023-11-14T20:14:23.202Z,3.60
2023-11-14T20:16:56.233Z,3.57
2023-11-14T20:19:26.509Z,3.93
2023-11-14T20:21:57.047Z,4.43
2023-11-14T20:24:27.438Z,4.40
2023-11-14T20:26:57.895Z,4.23
2023-11-14T20:29:28.029Z,4.20
2023-11-14T20:32:00.754Z,4.30
2023-11-14T20:34:31.471Z,4.67
2023-11-14T20:37:02.006Z,4.27
2023-11-14T20:39:34.235Z,3.37
2023-11-14T20:42:06.725Z,4.30
2023-11-14T20:44:37.012Z,4.47
2023-11-14T20:47:13.451Z,3.73
2023-11-14T20:49:43.663Z,3.77
2023-11-14T20:52:17.138Z,8.23
2023-11-14T20:54:49.769Z,4.40
2023-11-14T20:57:21.463Z,3.60
2023-11-14T20:59:52.743Z,5.10
2023-11-14T21:02:25.764Z,4.17
2023-11-14T21:05:01.450Z,3.63
2023-11-14T21:07:31.820Z,4.00
2023-11-14T21:10:02.293Z,3.80
2023-11-14T21:12:37.088Z,4.00
2023-11-14T21:15:10.372Z,3.60
2023-11-14T21:17:50.582Z,3.20
2023-11-14T21:20:28.529Z,3.47
2023-11-14T21:22:58.872Z,3.33
2023-11-14T21:25:50.638Z,3.50
2023-11-14T21:28:39.747Z,3.50
2023-11-14T21:31:18.699Z,3.67
2023-11-14T21:33:56.337Z,2.97
2023-11-14T21:36:27.579Z,3.23
2023-11-14T21:38:57.750Z,3.63
2023-11-14T21:41:28.109Z,3.23
2023-11-14T21:43:59.366Z,3.83
2023-11-14T21:46:30.166Z,3.97
2023-11-14T21:49:03.521Z,3.40
2023-11-14T21:51:35.186Z,3.37
2023-11-14T21:54:08.933Z,3.20
2023-11-14T21:56:40.810Z,4.13
2023-11-14T21:59:12.024Z,3.50
2023-11-14T22:01:42.498Z,3.63
2023-11-14T22:04:17.136Z,3.43
2023-11-14T22:06:47.632Z,3.50
2023-11-14T22:09:20.037Z,3.70
2023-11-14T22:11:55.049Z,4.40
2023-11-14T22:14:28.011Z,3.20
2023-11-14T22:17:02.878Z,3.20
2023-11-14T22:19:38.142Z,3.53
2023-11-14T22:22:08.597Z,4.00
2023-11-14T22:24:38.866Z,4.10
2023-11-14T22:27:29.833Z,3.50
2023-11-14T22:30:00.793Z,3.93
2023-11-14T22:32:32.294Z,4.40
2023-11-14T22:35:05.465Z,3.83
2023-11-14T22:37:36.140Z,3.80
2023-11-14T22:40:07.225Z,4.10
2023-11-14T22:42:37.397Z,3.70
2023-11-14T22:45:11.227Z,4.13
2023-11-14T22:47:43.120Z,4.57
2023-11-14T22:50:16.300Z,3.77
2023-11-14T22:52:49.063Z,4.33
2023-11-14T22:55:19.410Z,4.30
2023-11-14T22:57:54.054Z,4.80
2023-11-14T23:00:45.065Z,5.83
2023-11-14T23:03:16.360Z,4.13
2023-11-14T23:05:49.406Z,4.40
2023-11-14T23:08:24.095Z,4.03
2023-11-14T23:10:54.313Z,4.30
2023-11-14T23:13:43.268Z,3.90
2023-11-14T23:16:13.560Z,4.40
2023-11-14T23:18:44.925Z,4.87
2023-11-14T23:21:17.925Z,4.43
2023-11-14T23:23:48.172Z,4.73
2023-11-14T23:26:19.106Z,4.50
2023-11-14T23:28:51.354Z,4.20
2023-11-14T23:31:23.014Z,4.10
2023-11-14T23:33:53.397Z,4.27
2023-11-14T23:36:27.147Z,3.90
2023-11-14T23:39:06.560Z,4.40
2023-11-14T23:41:37.592Z,4.50
2023-11-14T23:44:11.195Z,4.40
2023-11-14T23:46:45.746Z,4.77
2023-11-14T23:49:17.285Z,4.27
2023-11-14T23:51:51.497Z,4.80
2023-11-14T23:54:27.658Z,4.57
2023-11-14T23:56:58.534Z,4.90
2023-11-14T23:59:29.568Z,5.27
